Time;durP1;ratioP1;P1;durP2;ratioP2;P2;SDS_P1;SDS_P2;PMS_P1;PMS_P2;Temp;Humidity;BMP_temperature;BMP_pressure;BME280_temperature;BME280_humidity;BME280_pressure;Samples;Min_cycle;Max_cycle;Signal;HPM_P1;HPM_P2
2023/12/06 00:01:24;;;;;;;21.27;13.70;;;;;;;;;;5085261;28;20036;-67
2023/12/06 00:03:50;;;;;;;20.85;13.85;;;;;;;;;;5085288;28;20127;-65
2023/12/06 00:06:16;;;;;;;23.65;15.75;;;;;;;;;;5083029;28;20048;-67
2023/12/06 00:08:43;;;;;;;21.75;14.85;;;;;;;;;;5083452;28;20672;-66
2023/12/06 00:11:09;;;;;;;21.80;13.90;;;;;;;;;;5084284;28;20125;-66
2023/12/06 00:13:35;;;;;;;23.42;15.13;;;;;;;;;;5084814;28;20044;-66
2023/12/06 00:16:01;;;;;;;24.15;15.80;;;;;;;;;;5083886;28;20185;-67
2023/12/06 00:18:27;;;;;;;21.23;14.40;;;;;;;;;;5085396;28;20067;-67
2023/12/06 00:20:53;;;;;;;20.15;13.93;;;;;;;;;;5085287;28;20051;-66
2023/12/06 00:23:19;;;;;;;24.08;15.18;;;;;;;;;;5085127;28;20209;-67
2023/12/06 00:25:46;;;;;;;24.00;14.25;;;;;;;;;;5081462;28;20630;-67
2023/12/06 00:28:12;;;;;;;21.70;14.65;;;;;;;;;;5085119;28;20039;-67
2023/12/06 00:30:38;;;;;;;21.05;14.48;;;;;;;;;;5085192;28;20047;-67
2023/12/06 00:33:04;;;;;;;24.23;15.27;;;;;;;;;;5085087;28;20047;-66
2023/12/06 00:35:30;;;;;;;20.10;14.48;;;;;;;;;;5085138;28;20036;-67
2023/12/06 00:37:56;;;;;;;20.67;14.38;;;;;;;;;;5083851;28;20042;-67
2023/12/06 00:40:22;;;;;;;21.80;14.55;;;;;;;;;;5085933;28;20107;-67
2023/12/06 00:42:48;;;;;;;22.42;13.45;;;;;;;;;;5089414;28;20231;-66
2023/12/06 00:45:14;;;;;;;18.70;13.23;;;;;;;;;;5090470;28;20078;-66
2023/12/06 00:47:40;;;;;;;22.45;14.98;;;;;;;;;;5092992;28;20288;-66
2023/12/06 00:50:07;;;;;;;21.30;14.15;;;;;;;;;;5091330;28;20821;-66
2023/12/06 00:52:33;;;;;;;21.40;13.93;;;;;;;;;;5090530;28;20103;-66
2023/12/06 00:54:59;;;;;;;18.92;14.05;;;;;;;;;;5089596;28;20159;-66
2023/12/06 00:57:25;;;;;;;20.85;12.23;;;;;;;;;;5090576;28;20344;-67
2023/12/06 00:59:51;;;;;;;21.70;14.05;;;;;;;;;;5090722;28;20241;-66
2023/12/06 01:02:18;;;;;;;19.65;13.73;;;;;;;;;;5088453;28;20036;-66
2023/12/06 01:04:46;;;;;;;17.55;12.10;;;;;;;;;;5089529;28;20214;-66
2023/12/06 01:07:12;;;;;;;23.95;15.10;;;;;;;;;;5087960;28;20071;-68
2023/12/06 01:09:38;;;;;;;18.23;12.70;;;;;;;;;;5088805;28;20441;-67
2023/12/06 01:12:05;;;;;;;17.08;12.93;;;;;;;;;;5089108;28;20104;-67
2023/12/06 01:14:31;;;;;;;17.70;11.90;;;;;;;;;;5089531;28;20391;-67
2023/12/06 01:16:57;;;;;;;15.57;12.18;;;;;;;;;;5089703;28;20513;-67
2023/12/06 01:19:23;;;;;;;15.70;11.13;;;;;;;;;;5090036;28;20266;-67
2023/12/06 01:21:49;;;;;;;17.70;12.00;;;;;;;;;;5088797;28;20039;-67
2023/12/06 01:24:15;;;;;;;16.73;11.55;;;;;;;;;;5088635;28;20707;-66
2023/12/06 01:26:41;;;;;;;16.23;12.27;;;;;;;;;;5088634;28;20261;-67
2023/12/06 01:29:08;;;;;;;20.70;12.45;;;;;;;;;;5088216;27;20273;-66
2023/12/06 01:31:34;;;;;;;19.55;12.27;;;;;;;;;;5088908;28;20105;-66
2023/12/06 01:34:00;;;;;;;17.13;11.27;;;;;;;;;;5088541;28;20274;-66
2023/12/06 01:36:27;;;;;;;15.48;10.68;;;;;;;;;;5086411;28;20106;-65
2023/12/06 01:38:53;;;;;;;16.60;11.55;;;;;;;;;;5087122;28;20293;-66
2023/12/06 01:41:19;;;;;;;18.23;12.27;;;;;;;;;;5087421;28;20032;-66
2023/12/06 01:43:45;;;;;;;16.17;11.57;;;;;;;;;;5087787;28;20207;-66
2023/12/06 01:46:12;;;;;;;18.25;10.93;;;;;;;;;;5088014;28;20040;-66
2023/12/06 01:48:38;;;;;;;14.63;10.23;;;;;;;;;;5086466;28;20081;-66
2023/12/06 01:51:05;;;;;;;16.92;10.85;;;;;;;;;;5087206;28;20257;-66
2023/12/06 01:53:32;;;;;;;14.52;11.07;;;;;;;;;;5087669;27;20119;-66
2023/12/06 01:55:58;;;;;;;15.40;10.10;;;;;;;;;;5067720;28;20479;-65
2023/12/06 01:58:25;;;;;;;14.95;10.82;;;;;;;;;;5088977;28;20491;-66
2023/12/06 02:00:52;;;;;;;18.00;11.02;;;;;;;;;;5088078;28;20518;-66
2023/12/06 02:03:18;;;;;;;15.90;10.85;;;;;;;;;;5089126;28;20061;-66
2023/12/06 02:05:44;;;;;;;15.63;11.40;;;;;;;;;;5088047;28;20059;-65
2023/12/06 02:08:12;;;;;;;14.38;10.43;;;;;;;;;;5088803;28;20256;-67
2023/12/06 02:10:38;;;;;;;12.52;9.50;;;;;;;;;;5084867;28;20623;-66
2023/12/06 02:13:04;;;;;;;13.10;9.18;;;;;;;;;;5086718;28;20043;-66
2023/12/06 02:15:31;;;;;;;17.15;10.70;;;;;;;;;;5087537;28;20059;-67
2023/12/06 02:17:58;;;;;;;16.42;10.23;;;;;;;;;;5088541;28;20244;-67
2023/12/06 02:20:24;;;;;;;14.25;9.85;;;;;;;;;;5085432;28;20052;-66
2023/12/06 02:22:52;;;;;;;13.35;10.10;;;;;;;;;;5087346;28;20231;-67
2023/12/06 02:25:18;;;;;;;15.15;9.55;;;;;;;;;;5086358;28;20196;-67
2023/12/06 02:27:45;;;;;;;13.82;8.82;;;;;;;;;;5086681;28;20056;-67
2023/12/06 02:30:11;;;;;;;15.48;10.40;;;;;;;;;;5084537;28;20234;-67
2023/12/06 02:32:38;;;;;;;13.55;10.13;;;;;;;;;;5119202;27;20142;-67
2023/12/06 02:35:06;;;;;;;11.98;9.68;;;;;;;;;;5086279;28;20728;-66
2023/12/06 02:37:33;;;;;;;17.23;11.30;;;;;;;;;;5085141;28;20039;-66
2023/12/06 02:40:00;;;;;;;13.90;9.98;;;;;;;;;;5084974;28;20548;-67
2023/12/06 02:42:26;;;;;;;13.77;9.25;;;;;;;;;;5085367;28;20282;-66
2023/12/06 02:44:52;;;;;;;13.73;9.48;;;;;;;;;;5086333;27;20344;-68
2023/12/06 02:47:19;;;;;;;17.58;10.93;;;;;;;;;;5086870;28;20036;-68
2023/12/06 02:49:45;;;;;;;14.68;8.90;;;;;;;;;;5087300;28;20040;-66
2023/12/06 02:52:13;;;;;;;12.85;9.13;;;;;;;;;;5087192;28;20122;-67
2023/12/06 02:54:39;;;;;;;11.05;8.60;;;;;;;;;;5084156;28;20079;-67
2023/12/06 02:57:05;;;;;;;11.18;8.18;;;;;;;;;;5086465;28;20195;-67
2023/12/06 02:59:31;;;;;;;11.10;8.52;;;;;;;;;;5086193;28;20487;-67
2023/12/06 03:01:58;;;;;;;13.38;8.98;;;;;;;;;;5085749;28;20187;-66
2023/12/06 03:04:24;;;;;;;14.07;9.45;;;;;;;;;;5086114;28;20540;-66
2023/12/06 03:06:51;;;;;;;13.57;9.30;;;;;;;;;;5085735;28;20521;-67
2023/12/06 03:09:17;;;;;;;13.25;9.60;;;;;;;;;;5086190;28;20047;-68
2023/12/06 03:11:44;;;;;;;13.27;9.13;;;;;;;;;;5085300;28;20526;-67
2023/12/06 03:14:10;;;;;;;12.65;9.15;;;;;;;;;;5083970;28;20044;-67
2023/12/06 03:16:36;;;;;;;12.10;8.68;;;;;;;;;;5067885;28;20503;-66
2023/12/06 03:19:02;;;;;;;12.45;9.00;;;;;;;;;;5085399;28;20112;-67
2023/12/06 03:21:28;;;;;;;11.32;8.70;;;;;;;;;;5085399;28;20039;-68
2023/12/06 03:23:54;;;;;;;13.05;9.25;;;;;;;;;;5085786;28;20163;-66
2023/12/06 03:26:21;;;;;;;12.13;7.82;;;;;;;;;;5084803;28;20035;-66
2023/12/06 03:28:47;;;;;;;12.82;8.38;;;;;;;;;;5085060;28;20744;-67
2023/12/06 03:31:14;;;;;;;11.75;8.00;;;;;;;;;;5085368;28;20202;-66
2023/12/06 03:33:40;;;;;;;11.18;8.30;;;;;;;;;;5083901;28;20100;-66
2023/12/06 03:36:09;;;;;;;9.43;8.13;;;;;;;;;;5085021;28;20285;-67
2023/12/06 03:38:36;;;;;;;11.25;7.65;;;;;;;;;;5085238;28;20095;-66
2023/12/06 03:41:02;;;;;;;11.38;7.82;;;;;;;;;;5085148;28;20616;-67
2023/12/06 03:43:28;;;;;;;12.88;8.00;;;;;;;;;;5085767;28;20567;-66
2023/12/06 03:45:54;;;;;;;9.95;6.88;;;;;;;;;;5085834;28;20206;-68
2023/12/06 03:48:20;;;;;;;9.38;6.80;;;;;;;;;;5085971;28;20634;-67
2023/12/06 03:50:46;;;;;;;10.77;8.05;;;;;;;;;;5085085;28;20639;-66
2023/12/06 03:53:12;;;;;;;15.07;8.40;;;;;;;;;;5085707;28;20055;-66
2023/12/06 03:55:38;;;;;;;10.52;7.68;;;;;;;;;;5084132;28;20880;-66
2023/12/06 03:58:06;;;;;;;10.35;7.63;;;;;;;;;;5085555;28;20197;-67
2023/12/06 04:00:32;;;;;;;9.55;6.82;;;;;;;;;;5085128;28;20201;-67
2023/12/06 04:02:58;;;;;;;12.65;7.70;;;;;;;;;;5086087;28;20093;-67
2023/12/06 04:05:24;;;;;;;10.55;7.40;;;;;;;;;;5085273;28;20564;-66
2023/12/06 04:07:50;;;;;;;12.05;8.43;;;;;;;;;;5085663;28;20138;-66
2023/12/06 04:10:17;;;;;;;10.48;6.90;;;;;;;;;;5086379;28;20355;-66
2023/12/06 04:12:43;;;;;;;11.95;7.57;;;;;;;;;;5084875;28;20207;-66
2023/12/06 04:15:11;;;;;;;9.48;6.88;;;;;;;;;;5070009;28;20088;-67
2023/12/06 04:17:37;;;;;;;9.55;6.45;;;;;;;;;;5092085;28;20105;-67
2023/12/06 04:20:05;;;;;;;11.05;6.72;;;;;;;;;;5091890;27;20027;-67
2023/12/06 04:22:31;;;;;;;8.65;6.32;;;;;;;;;;5123146;27;20587;-67
2023/12/06 04:24:57;;;;;;;8.13;5.90;;;;;;;;;;5088598;28;20047;-67
2023/12/06 04:27:24;;;;;;;9.93;6.07;;;;;;;;;;5089383;28;20121;-67
2023/12/06 04:29:50;;;;;;;9.27;6.63;;;;;;;;;;5088156;28;20048;-67
2023/12/06 04:32:16;;;;;;;10.10;7.22;;;;;;;;;;5089468;28;20172;-67
2023/12/06 04:34:52;;;;;;;10.35;7.30;;;;;;;;;;5090136;28;20043;-67
2023/12/06 04:37:18;;;;;;;8.18;5.25;;;;;;;;;;5089110;28;20055;-67
2023/12/06 04:39:45;;;;;;;8.40;6.22;;;;;;;;;;5088127;28;20506;-67
2023/12/06 04:42:12;;;;;;;8.98;6.22;;;;;;;;;;5089673;28;20096;-67
2023/12/06 04:44:38;;;;;;;8.75;6.13;;;;;;;;;;5088305;28;20199;-66
2023/12/06 04:47:04;;;;;;;8.13;5.72;;;;;;;;;;5090012;28;20044;-66
2023/12/06 04:49:30;;;;;;;8.50;6.10;;;;;;;;;;5087997;28;20607;-66
2023/12/06 04:51:57;;;;;;;8.95;5.88;;;;;;;;;;5088578;28;20063;-66
2023/12/06 04:54:24;;;;;;;9.75;6.57;;;;;;;;;;5088170;28;20047;-66
2023/12/06 04:56:50;;;;;;;8.38;5.00;;;;;;;;;;5088452;28;20048;-66
2023/12/06 04:59:16;;;;;;;8.50;6.05;;;;;;;;;;5070316;28;20537;-65
2023/12/06 05:01:43;;;;;;;7.35;5.68;;;;;;;;;;5087419;28;20097;-66
2023/12/06 05:04:09;;;;;;;7.07;5.22;;;;;;;;;;5088820;28;20062;-67
2023/12/06 05:06:36;;;;;;;8.18;5.25;;;;;;;;;;5087971;28;20535;-67
2023/12/06 05:09:02;;;;;;;8.93;5.50;;;;;;;;;;5088275;28;20421;-65
2023/12/06 05:11:28;;;;;;;7.88;5.22;;;;;;;;;;5087447;28;20040;-65
2023/12/06 05:13:54;;;;;;;7.63;5.63;;;;;;;;;;5086580;28;20384;-66
2023/12/06 05:16:20;;;;;;;5.15;4.57;;;;;;;;;;5086360;28;20286;-65
2023/12/06 05:18:46;;;;;;;7.03;5.47;;;;;;;;;;5088265;28;20551;-66
2023/12/06 05:21:12;;;;;;;6.20;4.68;;;;;;;;;;5087892;28;20044;-66
2023/12/06 05:23:38;;;;;;;6.63;4.82;;;;;;;;;;5088203;28;20426;-66
2023/12/06 05:26:04;;;;;;;9.27;5.10;;;;;;;;;;5087088;28;20078;-65
2023/12/06 05:28:30;;;;;;;7.30;5.55;;;;;;;;;;5121149;27;20751;-66
2023/12/06 05:30:56;;;;;;;10.80;5.88;;;;;;;;;;5088475;28;20113;-67
2023/12/06 05:33:22;;;;;;;7.15;4.85;;;;;;;;;;5070154;28;20240;-66
2023/12/06 05:35:49;;;;;;;6.82;5.10;;;;;;;;;;5089250;28;20211;-66
2023/12/06 05:38:15;;;;;;;7.63;5.20;;;;;;;;;;5082512;28;20444;-66
2023/12/06 05:40:41;;;;;;;6.93;4.75;;;;;;;;;;5089040;28;20051;-67
2023/12/06 05:43:08;;;;;;;5.32;4.35;;;;;;;;;;5088242;28;20403;-67
2023/12/06 05:45:34;;;;;;;6.70;5.05;;;;;;;;;;5087672;28;20887;-67
2023/12/06 05:48:00;;;;;;;8.77;5.05;;;;;;;;;;5088008;28;20081;-66
2023/12/06 05:50:26;;;;;;;7.15;5.03;;;;;;;;;;5086477;28;20040;-67
2023/12/06 05:52:52;;;;;;;5.72;4.57;;;;;;;;;;5086956;28;20053;-66
2023/12/06 05:55:18;;;;;;;7.78;4.82;;;;;;;;;;5088365;28;20505;-67
2023/12/06 05:57:44;;;;;;;7.63;5.03;;;;;;;;;;5087904;28;20871;-66
2023/12/06 06:00:12;;;;;;;8.15;4.95;;;;;;;;;;5088020;28;20530;-66
2023/12/06 06:02:44;;;;;;;5.55;4.22;;;;;;;;;;5085844;28;20220;-66
2023/12/06 06:05:11;;;;;;;7.97;5.22;;;;;;;;;;5087284;28;20450;-66
2023/12/06 06:07:37;;;;;;;5.30;4.13;;;;;;;;;;5087353;28;20118;-66
2023/12/06 06:10:04;;;;;;;4.95;4.03;;;;;;;;;;5086816;28;20100;-66
2023/12/06 06:12:30;;;;;;;7.80;5.22;;;;;;;;;;5087557;28;20032;-66
2023/12/06 06:14:56;;;;;;;6.95;4.72;;;;;;;;;;5086923;27;20380;-66
2023/12/06 06:17:23;;;;;;;7.82;5.45;;;;;;;;;;5088384;28;20039;-66
2023/12/06 06:19:50;;;;;;;7.45;4.45;;;;;;;;;;5081831;28;20423;-66
2023/12/06 06:22:16;;;;;;;7.78;5.10;;;;;;;;;;5084890;28;20181;-66
2023/12/06 06:24:42;;;;;;;6.07;4.80;;;;;;;;;;5086820;28;20579;-66
2023/12/06 06:27:08;;;;;;;6.78;4.70;;;;;;;;;;5089513;28;20067;-66
2023/12/06 06:29:34;;;;;;;6.97;5.03;;;;;;;;;;5088920;28;20277;-66
2023/12/06 06:32:00;;;;;;;7.60;5.38;;;;;;;;;;5087822;28;20514;-66
2023/12/06 06:34:26;;;;;;;8.15;4.72;;;;;;;;;;5089837;28;20079;-65
2023/12/06 06:36:58;;;;;;;9.82;5.78;;;;;;;;;;5087992;28;20050;-66
2023/12/06 06:39:24;;;;;;;6.28;4.72;;;;;;;;;;5088504;28;20431;-66
2023/12/06 06:41:50;;;;;;;11.65;5.60;;;;;;;;;;5088666;28;20049;-66
2023/12/06 06:44:16;;;;;;;7.78;5.15;;;;;;;;;;5088294;28;20252;-66
2023/12/06 06:46:43;;;;;;;6.03;4.70;;;;;;;;;;5085943;28;20054;-66
2023/12/06 06:49:09;;;;;;;5.82;4.88;;;;;;;;;;5081372;28;20043;-66
2023/12/06 06:51:35;;;;;;;6.55;4.20;;;;;;;;;;5084380;28;20179;-66
2023/12/06 06:54:02;;;;;;;7.07;5.18;;;;;;;;;;5081291;28;20421;-67
2023/12/06 06:56:28;;;;;;;7.47;4.82;;;;;;;;;;5082715;28;20047;-67
2023/12/06 06:58:55;;;;;;;6.40;4.45;;;;;;;;;;5083613;27;20198;-65
2023/12/06 07:01:21;;;;;;;7.32;4.30;;;;;;;;;;5083392;28;20394;-65
2023/12/06 07:03:47;;;;;;;7.65;4.68;;;;;;;;;;5083044;28;20302;-65
2023/12/06 07:06:13;;;;;;;7.20;4.50;;;;;;;;;;5083347;28;20047;-65
2023/12/06 07:08:43;;;;;;;7.60;5.05;;;;;;;;;;5079983;28;20149;-65
2023/12/06 07:11:09;;;;;;;7.10;4.82;;;;;;;;;;5081161;28;20274;-66
2023/12/06 07:13:36;;;;;;;8.40;5.35;;;;;;;;;;5082105;28;20247;-66
2023/12/06 07:16:02;;;;;;;7.65;4.47;;;;;;;;;;5082639;28;20055;-66
2023/12/06 07:18:29;;;;;;;6.72;4.95;;;;;;;;;;5081261;28;20731;-66
2023/12/06 07:20:55;;;;;;;6.85;5.10;;;;;;;;;;5082413;28;20218;-66
2023/12/06 07:23:21;;;;;;;7.72;5.60;;;;;;;;;;5083113;28;20065;-66
2023/12/06 07:25:47;;;;;;;7.05;4.40;;;;;;;;;;5083308;28;20491;-66
2023/12/06 07:28:13;;;;;;;9.52;5.07;;;;;;;;;;5084304;28;20166;-65
2023/12/06 07:30:43;;;;;;;6.13;4.68;;;;;;;;;;5084228;28;20246;-66
2023/12/06 07:33:09;;;;;;;7.03;4.75;;;;;;;;;;5085996;28;20165;-66
2023/12/06 07:35:36;;;;;;;7.88;4.20;;;;;;;;;;5078199;28;20044;-67
2023/12/06 07:38:02;;;;;;;8.27;5.53;;;;;;;;;;5085354;28;20031;-67
2023/12/06 07:40:29;;;;;;;5.95;4.22;;;;;;;;;;5085664;28;20039;-65
2023/12/06 07:42:55;;;;;;;6.05;4.80;;;;;;;;;;5087140;28;20059;-66
2023/12/06 07:45:22;;;;;;;7.60;4.57;;;;;;;;;;5082657;28;20044;-66
2023/12/06 07:47:49;;;;;;;7.25;4.68;;;;;;;;;;5084513;28;20069;-66
2023/12/06 07:50:16;;;;;;;6.55;5.07;;;;;;;;;;5083664;28;20588;-66
2023/12/06 07:52:42;;;;;;;7.28;4.75;;;;;;;;;;5083958;28;20185;-66
2023/12/06 07:55:09;;;;;;;7.22;4.28;;;;;;;;;;5081619;28;20197;-66
2023/12/06 07:57:37;;;;;;;9.00;3.75;;;;;;;;;;5083816;28;20634;-66
2023/12/06 08:00:07;;;;;;;5.78;4.28;;;;;;;;;;5064318;28;20100;-66
2023/12/06 08:02:35;;;;;;;6.65;4.47;;;;;;;;;;5085108;28;20123;-66
2023/12/06 08:05:04;;;;;;;6.57;4.72;;;;;;;;;;5084468;28;20313;-66
2023/12/06 08:07:31;;;;;;;6.82;4.38;;;;;;;;;;5082576;28;20206;-66
2023/12/06 08:09:57;;;;;;;8.35;5.03;;;;;;;;;;5082791;28;20184;-67
2023/12/06 08:12:23;;;;;;;6.63;4.53;;;;;;;;;;5083776;28;20191;-67
2023/12/06 08:14:49;;;;;;;6.20;4.35;;;;;;;;;;5065255;28;20044;-67
2023/12/06 08:17:15;;;;;;;8.43;4.63;;;;;;;;;;5084870;28;20150;-67
2023/12/06 08:19:47;;;;;;;8.32;5.22;;;;;;;;;;5082911;28;20062;-67
2023/12/06 08:22:13;;;;;;;6.68;4.40;;;;;;;;;;5081855;28;20069;-67
2023/12/06 08:24:39;;;;;;;9.18;5.18;;;;;;;;;;5083208;28;20258;-66
2023/12/06 08:27:05;;;;;;;5.95;4.43;;;;;;;;;;5082973;28;20096;-67
2023/12/06 08:29:31;;;;;;;6.55;4.90;;;;;;;;;;5083568;28;20217;-67
2023/12/06 08:31:58;;;;;;;8.60;4.93;;;;;;;;;;5084320;28;20043;-64
2023/12/06 08:34:24;;;;;;;5.82;4.30;;;;;;;;;;5083935;28;20289;-67
2023/12/06 08:36:50;;;;;;;7.82;5.10;;;;;;;;;;5084151;28;20100;-66
2023/12/06 08:39:16;;;;;;;5.90;4.68;;;;;;;;;;5083214;28;20039;-67
2023/12/06 08:41:43;;;;;;;9.55;5.32;;;;;;;;;;5082493;28;20411;-67
2023/12/06 08:44:09;;;;;;;6.55;4.93;;;;;;;;;;5082242;28;20159;-67
2023/12/06 08:46:35;;;;;;;6.82;5.13;;;;;;;;;;5083461;28;20166;-67
2023/12/06 08:49:01;;;;;;;6.85;4.55;;;;;;;;;;5084610;28;20065;-65
2023/12/06 08:51:29;;;;;;;6.75;4.47;;;;;;;;;;5082338;28;20134;-66
2023/12/06 08:53:56;;;;;;;5.88;3.70;;;;;;;;;;5084725;28;20642;-65
2023/12/06 08:56:22;;;;;;;5.88;4.78;;;;;;;;;;5083553;28;20503;-66
2023/12/06 08:58:48;;;;;;;5.15;3.92;;;;;;;;;;5084947;28;20129;-66
2023/12/06 09:01:14;;;;;;;7.95;4.15;;;;;;;;;;5084642;27;20276;-66
2023/12/06 09:03:40;;;;;;;5.97;3.95;;;;;;;;;;5083974;28;20051;-66
2023/12/06 09:06:07;;;;;;;7.57;4.88;;;;;;;;;;5087446;27;20477;-66
2023/12/06 09:08:34;;;;;;;5.88;3.97;;;;;;;;;;5087011;28;20118;-66
2023/12/06 09:11:00;;;;;;;6.75;4.15;;;;;;;;;;5085697;28;20225;-66
2023/12/06 09:13:26;;;;;;;6.57;5.03;;;;;;;;;;5086603;28;20278;-65
2023/12/06 09:15:53;;;;;;;8.70;5.07;;;;;;;;;;5085039;28;20174;-66
2023/12/06 09:18:19;;;;;;;6.82;4.55;;;;;;;;;;5087193;28;20326;-66
2023/12/06 09:20:46;;;;;;;6.00;4.13;;;;;;;;;;5087090;28;20404;-66
2023/12/06 09:23:13;;;;;;;5.65;4.20;;;;;;;;;;5085650;28;20056;-66
2023/12/06 09:25:40;;;;;;;5.13;3.97;;;;;;;;;;5085760;28;20047;-67
2023/12/06 09:28:06;;;;;;;6.82;4.15;;;;;;;;;;5087141;28;20039;-67
2023/12/06 09:30:32;;;;;;;6.15;3.83;;;;;;;;;;5086456;28;20286;-67
2023/12/06 09:32:58;;;;;;;5.85;4.03;;;;;;;;;;5086987;28;21030;-66
2023/12/06 09:35:24;;;;;;;6.35;4.00;;;;;;;;;;5087118;28;20039;-66
2023/12/06 09:37:50;;;;;;;7.50;5.05;;;;;;;;;;5087360;28;20046;-67
2023/12/06 09:40:17;;;;;;;6.45;5.15;;;;;;;;;;5086066;28;20078;-66
2023/12/06 09:42:44;;;;;;;7.68;4.18;;;;;;;;;;5086284;28;20113;-67
2023/12/06 09:45:10;;;;;;;7.45;4.70;;;;;;;;;;5086974;28;20373;-68
2023/12/06 09:47:36;;;;;;;7.30;4.43;;;;;;;;;;5088228;28;20095;-67
2023/12/06 09:50:03;;;;;;;6.35;4.07;;;;;;;;;;5086221;28;20031;-67
2023/12/06 09:52:29;;;;;;;4.85;3.53;;;;;;;;;;5086977;28;20422;-66
2023/12/06 09:54:56;;;;;;;5.97;4.35;;;;;;;;;;5086113;28;20056;-66
2023/12/06 09:57:22;;;;;;;6.80;3.67;;;;;;;;;;5086376;28;20044;-66
2023/12/06 09:59:48;;;;;;;7.45;4.20;;;;;;;;;;5084441;28;20067;-66
2023/12/06 10:02:14;;;;;;;6.28;4.28;;;;;;;;;;5086172;28;20046;-67
2023/12/06 10:04:40;;;;;;;6.50;4.38;;;;;;;;;;5086444;28;20054;-67
2023/12/06 10:07:07;;;;;;;5.63;3.92;;;;;;;;;;5086320;28;20313;-67
2023/12/06 10:09:33;;;;;;;5.07;3.97;;;;;;;;;;5085882;28;20073;-67
2023/12/06 10:12:26;;;;;;;6.00;4.20;;;;;;;;;;5085187;28;20588;-66
2023/12/06 10:14:59;;;;;;;5.40;3.77;;;;;;;;;;5083946;27;20170;-67
2023/12/06 10:17:25;;;;;;;6.38;4.05;;;;;;;;;;5085677;28;20059;-66
2023/12/06 10:19:51;;;;;;;5.75;3.97;;;;;;;;;;5086276;28;20040;-67
2023/12/06 10:22:17;;;;;;;4.38;3.47;;;;;;;;;;5084341;28;20039;-67
2023/12/06 10:24:43;;;;;;;5.80;4.43;;;;;;;;;;5085718;28;20044;-67
2023/12/06 10:27:12;;;;;;;6.47;4.18;;;;;;;;;;5085307;28;20051;-66
2023/12/06 10:29:39;;;;;;;4.85;3.88;;;;;;;;;;5085777;28;20054;-66
2023/12/06 10:32:05;;;;;;;5.43;3.67;;;;;;;;;;5085331;27;20173;-66
2023/12/06 10:34:32;;;;;;;5.70;4.28;;;;;;;;;;5086069;28;20075;-66
2023/12/06 10:36:59;;;;;;;4.50;3.17;;;;;;;;;;5085970;28;20048;-66
2023/12/06 10:39:32;;;;;;;5.38;4.10;;;;;;;;;;5085984;28;20552;-66
2023/12/06 10:42:00;;;;;;;4.68;3.75;;;;;;;;;;5084673;28;20036;-66
2023/12/06 10:44:26;;;;;;;5.70;4.28;;;;;;;;;;5085330;28;20128;-66
2023/12/06 10:46:53;;;;;;;5.63;3.75;;;;;;;;;;5083689;28;20036;-66
2023/12/06 10:49:19;;;;;;;6.90;4.22;;;;;;;;;;5085845;28;20504;-67
2023/12/06 10:51:45;;;;;;;7.72;4.80;;;;;;;;;;5083742;28;20055;-67
2023/12/06 10:54:12;;;;;;;4.63;3.97;;;;;;;;;;5085849;28;20059;-67
2023/12/06 10:56:39;;;;;;;4.70;3.40;;;;;;;;;;5085096;28;20116;-67
2023/12/06 10:59:07;;;;;;;6.10;4.13;;;;;;;;;;5081408;27;20312;-67
2023/12/06 11:01:33;;;;;;;4.63;3.33;;;;;;;;;;5087315;28;20506;-67
2023/12/06 11:04:01;;;;;;;4.68;3.83;;;;;;;;;;5085229;28;20606;-67
2023/12/06 11:06:43;;;;;;;6.70;4.55;;;;;;;;;;5084754;28;20263;-67
2023/12/06 11:09:09;;;;;;;5.95;4.28;;;;;;;;;;5085136;28;20043;-67
2023/12/06 11:11:44;;;;;;;6.25;4.03;;;;;;;;;;5084233;28;20189;-67
2023/12/06 11:14:10;;;;;;;6.07;4.10;;;;;;;;;;5083939;27;20044;-67
2023/12/06 11:16:36;;;;;;;7.72;4.30;;;;;;;;;;5083511;28;20522;-66
2023/12/06 11:19:03;;;;;;;8.05;4.07;;;;;;;;;;5084152;28;20096;-67
2023/12/06 11:21:30;;;;;;;5.05;3.78;;;;;;;;;;5084633;28;20205;-67
2023/12/06 11:23:57;;;;;;;3.88;3.13;;;;;;;;;;5084091;28;20095;-67
2023/12/06 11:26:23;;;;;;;6.78;4.72;;;;;;;;;;5083909;28;20096;-67
2023/12/06 11:28:50;;;;;;;5.88;3.65;;;;;;;;;;5085008;28;20488;-67
2023/12/06 11:31:17;;;;;;;7.28;3.88;;;;;;;;;;5083863;28;20048;-67
2023/12/06 11:33:56;;;;;;;5.72;3.92;;;;;;;;;;5085388;28;20117;-67
2023/12/06 11:36:24;;;;;;;4.70;3.45;;;;;;;;;;5082987;28;20120;-67
2023/12/06 11:38:50;;;;;;;5.32;3.22;;;;;;;;;;5084314;28;20664;-67
2023/12/06 11:41:16;;;;;;;4.90;3.08;;;;;;;;;;5083237;28;20184;-67
2023/12/06 11:43:49;;;;;;;7.00;3.83;;;;;;;;;;5084138;28;20043;-67
2023/12/06 11:46:15;;;;;;;5.55;4.45;;;;;;;;;;5083704;28;20148;-67
2023/12/06 11:48:45;;;;;;;5.32;3.78;;;;;;;;;;5085295;28;20100;-67
2023/12/06 11:51:22;;;;;;;6.07;3.63;;;;;;;;;;5084951;28;20039;-67
2023/12/06 11:53:50;;;;;;;4.75;3.38;;;;;;;;;;5085419;28;20411;-66
2023/12/06 11:56:26;;;;;;;4.82;3.28;;;;;;;;;;5083255;28;20039;-66
2023/12/06 11:58:53;;;;;;;6.32;3.67;;;;;;;;;;5083357;28;20051;-67
2023/12/06 12:01:20;;;;;;;5.75;3.85;;;;;;;;;;5084030;28;20406;-67
2023/12/06 12:03:49;;;;;;;4.40;3.38;;;;;;;;;;5085139;28;20047;-67
2023/12/06 12:06:19;;;;;;;5.95;3.40;;;;;;;;;;5082426;28;20244;-67
2023/12/06 12:08:45;;;;;;;5.97;3.83;;;;;;;;;;5084351;28;20146;-67
2023/12/06 12:11:12;;;;;;;6.03;3.70;;;;;;;;;;5083445;28;20133;-66
2023/12/06 12:13:39;;;;;;;4.85;3.92;;;;;;;;;;5083957;28;20040;-67
2023/12/06 12:16:06;;;;;;;5.07;3.92;;;;;;;;;;5084498;28;20043;-67
2023/12/06 12:18:32;;;;;;;4.03;3.28;;;;;;;;;;5084080;28;20289;-67
2023/12/06 12:20:58;;;;;;;5.65;3.55;;;;;;;;;;5080198;28;20260;-67
2023/12/06 12:23:25;;;;;;;5.45;4.05;;;;;;;;;;5084855;28;20422;-67
2023/12/06 12:25:52;;;;;;;4.90;3.45;;;;;;;;;;5083726;28;20154;-67
2023/12/06 12:28:19;;;;;;;3.95;3.13;;;;;;;;;;5084647;28;20589;-67
2023/12/06 12:30:56;;;;;;;6.40;3.83;;;;;;;;;;5084721;28;20039;-67
2023/12/06 12:33:23;;;;;;;5.35;3.97;;;;;;;;;;5084323;28;20051;-66
2023/12/06 12:35:50;;;;;;;6.30;3.05;;;;;;;;;;5086001;28;20052;-66
2023/12/06 12:38:16;;;;;;;6.82;3.75;;;;;;;;;;5087411;28;21316;-67
2023/12/06 12:40:43;;;;;;;6.25;3.58;;;;;;;;;;5086401;28;20188;-68
2023/12/06 12:43:11;;;;;;;5.78;4.00;;;;;;;;;;5086340;28;20031;-66
2023/12/06 12:45:38;;;;;;;6.55;4.25;;;;;;;;;;5086554;28;20187;-67
2023/12/06 12:48:05;;;;;;;5.10;3.83;;;;;;;;;;5087040;28;20439;-67
2023/12/06 12:50:32;;;;;;;7.15;3.78;;;;;;;;;;5088861;28;20044;-67
2023/12/06 12:52:58;;;;;;;6.07;3.63;;;;;;;;;;5087608;28;20044;-67
2023/12/06 12:55:25;;;;;;;6.38;3.92;;;;;;;;;;5086509;28;20453;-67
2023/12/06 12:57:52;;;;;;;5.05;3.45;;;;;;;;;;5086210;28;20575;-66
2023/12/06 13:00:22;;;;;;;5.85;3.50;;;;;;;;;;5086685;28;20116;-67
2023/12/06 13:02:49;;;;;;;4.32;3.47;;;;;;;;;;5087500;28;20042;-67
2023/12/06 13:05:15;;;;;;;5.90;3.70;;;;;;;;;;5089124;28;20105;-67
2023/12/06 13:07:42;;;;;;;4.90;3.50;;;;;;;;;;5088190;28;20048;-65
2023/12/06 13:10:10;;;;;;;8.25;4.03;;;;;;;;;;5087728;28;20208;-66
2023/12/06 13:12:37;;;;;;;3.67;2.92;;;;;;;;;;5087007;28;20597;-67
2023/12/06 13:15:05;;;;;;;5.90;3.30;;;;;;;;;;5088510;28;20518;-67
2023/12/06 13:17:31;;;;;;;4.63;3.70;;;;;;;;;;5088266;28;20166;-67
2023/12/06 13:19:57;;;;;;;4.68;3.45;;;;;;;;;;5088492;28;20198;-66
2023/12/06 13:22:23;;;;;;;5.22;3.53;;;;;;;;;;5088547;28;20592;-66
2023/12/06 13:24:49;;;;;;;5.45;2.78;;;;;;;;;;5088161;28;20398;-67
2023/12/06 13:27:16;;;;;;;6.97;3.60;;;;;;;;;;5087155;28;20904;-67
2023/12/06 13:29:42;;;;;;;3.38;2.90;;;;;;;;;;5088297;28;20207;-66
2023/12/06 13:32:09;;;;;;;4.82;3.55;;;;;;;;;;5087507;28;20548;-67
2023/12/06 13:34:36;;;;;;;6.10;3.53;;;;;;;;;;5088167;28;20046;-66
2023/12/06 13:37:02;;;;;;;4.47;3.15;;;;;;;;;;5087970;28;20531;-66
2023/12/06 13:39:28;;;;;;;5.55;3.80;;;;;;;;;;5086146;28;20543;-66
2023/12/06 13:41:55;;;;;;;5.95;4.05;;;;;;;;;;5087010;28;20541;-65
2023/12/06 13:44:21;;;;;;;8.07;4.57;;;;;;;;;;5087348;28;20434;-66
2023/12/06 13:46:47;;;;;;;4.30;3.35;;;;;;;;;;5085202;27;20120;-66
2023/12/06 13:49:14;;;;;;;5.50;4.05;;;;;;;;;;5088697;28;20226;-66
2023/12/06 13:51:40;;;;;;;5.30;3.42;;;;;;;;;;5085579;28;20359;-67
2023/12/06 13:54:06;;;;;;;3.85;3.30;;;;;;;;;;5087756;28;20128;-67
2023/12/06 13:56:32;;;;;;;5.30;3.33;;;;;;;;;;5085851;28;20717;-67
2023/12/06 13:58:58;;;;;;;4.07;3.38;;;;;;;;;;5086151;28;20062;-66
2023/12/06 14:01:24;;;;;;;5.47;3.40;;;;;;;;;;5087009;28;20525;-67
2023/12/06 14:03:55;;;;;;;4.47;3.30;;;;;;;;;;5087938;28;20039;-66
2023/12/06 14:06:22;;;;;;;5.07;3.47;;;;;;;;;;5086895;27;20314;-66
2023/12/06 14:08:48;;;;;;;5.30;3.80;;;;;;;;;;5087222;28;20683;-66
2023/12/06 14:11:14;;;;;;;4.85;3.00;;;;;;;;;;5085945;28;20293;-66
2023/12/06 14:13:41;;;;;;;4.25;3.00;;;;;;;;;;5088735;28;20048;-67
2023/12/06 14:16:07;;;;;;;5.32;2.90;;;;;;;;;;5089551;28;20137;-66
2023/12/06 14:18:34;;;;;;;3.70;2.63;;;;;;;;;;5088825;28;20326;-66
2023/12/06 14:21:00;;;;;;;4.25;3.22;;;;;;;;;;5086655;28;20390;-66
2023/12/06 14:23:27;;;;;;;4.47;3.03;;;;;;;;;;5085688;28;20515;-66
2023/12/06 14:25:53;;;;;;;5.78;3.95;;;;;;;;;;5085704;28;20273;-66
2023/12/06 14:28:19;;;;;;;5.78;3.03;;;;;;;;;;5082816;28;20040;-66
2023/12/06 14:30:46;;;;;;;6.28;3.15;;;;;;;;;;5085248;28;20035;-66
2023/12/06 14:33:12;;;;;;;5.25;3.42;;;;;;;;;;5085984;28;20507;-67